Jelm, Wyoming
Current Conditions -  °F | °C
As of 5:53 PM on Saturday 25 Oct 2014 (Local Time) from KLAR Reporting Station
Clear Clear  
Wind Chill: 61°   Ceiling: Unl
Heat Index: 61°   Visibility: 10mi
Dew Point: 18°   Wind: 12mph
Humidity: 19%   Direction: 220°SW
Pressure: 30.14"   Gusts: NA
Location:  41.06°N, 106.01°W
Report Text: KLAR 252353Z AUTO 22010KT 10SM CLR 16/M08 A3014 RMK AO2 SLP145 T01611078 10222 20161 56012
Loading
Personal Weather Stations






























Interactive Weather Map
Tropical Storm Tracking
New forecast layout! Learn more

10-Day Weather Forecast

Advertisements
Track Severe Weather on mobile